Time;durP1;ratioP1;P1;durP2;ratioP2;P2;SDS_P1;SDS_P2;PMS_P1;PMS_P2;Temp;Humidity;BMP_temperature;BMP_pressure;BME280_temperature;BME280_humidity;BME280_pressure;Samples;Min_cycle;Max_cycle;Signal;HPM_P1;HPM_P2
2021/07/23 00:01:56;;;;;;;17.27;7.13;;;16.50;99.90;;;;;;5093035;28;20392;-60
2021/07/23 00:04:22;;;;;;;16.63;6.90;;;16.40;99.90;;;;;;5092935;28;20384;-60
2021/07/23 00:06:49;;;;;;;21.35;7.82;;;16.40;99.90;;;;;;5093112;28;20400;-60
2021/07/23 00:09:15;;;;;;;18.90;7.75;;;16.40;99.90;;;;;;5093067;28;20387;-60
2021/07/23 00:11:41;;;;;;;21.33;7.77;;;16.40;99.90;;;;;;5093805;28;20364;-60
2021/07/23 00:14:07;;;;;;;23.02;8.40;;;16.40;99.90;;;;;;5093684;28;20381;-61
2021/07/23 00:16:34;;;;;;;25.15;8.98;;;16.30;99.90;;;;;;5093700;28;20377;-61
2021/07/23 00:19:00;;;;;;;26.77;8.80;;;16.30;99.90;;;;;;5093165;28;20749;-61
2021/07/23 00:21:26;;;;;;;25.58;8.60;;;16.40;99.90;;;;;;5093449;28;20376;-60
2021/07/23 00:23:52;;;;;;;32.00;9.50;;;16.50;99.90;;;;;;5093298;28;20861;-60
2021/07/23 00:26:21;;;;;;;27.85;8.90;;;16.50;99.90;;;;;;5093185;28;20369;-60
2021/07/23 00:28:47;;;;;;;28.45;9.10;;;16.50;99.90;;;;;;5093624;28;20467;-61
2021/07/23 00:31:14;;;;;;;24.92;9.18;;;16.60;99.90;;;;;;5092050;28;21060;-60
2021/07/23 00:33:40;;;;;;;28.58;9.52;;;16.60;99.90;;;;;;5093347;28;20380;-60
2021/07/23 00:36:06;;;;;;;31.45;9.40;;;16.60;99.90;;;;;;5093221;28;20901;-60
2021/07/23 00:38:32;;;;;;;30.58;10.48;;;16.70;99.90;;;;;;5093300;28;20381;-60
2021/07/23 00:40:58;;;;;;;30.63;10.02;;;16.70;99.90;;;;;;5093053;28;20399;-61
2021/07/23 00:43:24;;;;;;;26.10;9.67;;;16.80;99.90;;;;;;5092934;28;20686;-60
2021/07/23 00:45:50;;;;;;;34.70;11.10;;;16.80;99.90;;;;;;5093019;28;20388;-60
2021/07/23 00:48:17;;;;;;;39.55;11.85;;;16.90;99.90;;;;;;5092943;28;20780;-59
2021/07/23 00:50:43;;;;;;;32.30;11.38;;;17.00;99.90;;;;;;5074834;28;20369;-60
2021/07/23 00:53:09;;;;;;;30.48;11.13;;;17.00;99.90;;;;;;5091677;28;20813;-60
2021/07/23 00:55:35;;;;;;;34.60;12.43;;;17.10;99.90;;;;;;5091519;28;20729;-60
2021/07/23 00:58:02;;;;;;;40.85;13.05;;;17.10;99.90;;;;;;5091730;28;20381;-60
2021/07/23 01:00:28;;;;;;;35.78;12.73;;;17.10;99.90;;;;;;5091716;28;20383;-60
2021/07/23 01:02:54;;;;;;;32.60;13.03;;;17.10;99.90;;;;;;5091623;28;20377;-60
2021/07/23 01:05:20;;;;;;;37.97;13.05;;;17.20;99.90;;;;;;5092810;28;20368;-60
2021/07/23 01:07:46;;;;;;;33.42;12.57;;;17.20;99.90;;;;;;5092460;28;20407;-61
2021/07/23 01:10:13;;;;;;;35.83;12.25;;;17.20;99.90;;;;;;5092541;28;20379;-61
2021/07/23 01:12:39;;;;;;;35.50;12.43;;;17.20;99.90;;;;;;5092663;28;20841;-61
2021/07/23 01:15:05;;;;;;;34.60;12.65;;;17.20;99.90;;;;;;5092543;28;20364;-61
2021/07/23 01:17:31;;;;;;;32.70;12.63;;;17.20;99.90;;;;;;5092446;28;20384;-61
2021/07/23 01:20:02;;;;;;;29.15;11.82;;;17.20;99.90;;;;;;5091018;28;20365;-61
2021/07/23 01:22:29;;;;;;;32.53;12.23;;;17.20;99.90;;;;;;5091659;28;20388;-61
2021/07/23 01:24:56;;;;;;;41.35;12.80;;;17.20;99.90;;;;;;5092201;28;20863;-60
2021/07/23 01:27:24;;;;;;;37.08;13.10;;;17.20;99.90;;;;;;5091311;28;20393;-60
2021/07/23 01:29:50;;;;;;;33.28;12.98;;;17.20;99.90;;;;;;5092153;28;20383;-60
2021/07/23 01:32:16;;;;;;;38.63;13.45;;;17.20;99.90;;;;;;5091626;28;20369;-61
2021/07/23 01:34:42;;;;;;;37.38;12.68;;;17.20;99.90;;;;;;5092275;28;20380;-60
2021/07/23 01:37:08;;;;;;;40.30;13.13;;;17.30;99.90;;;;;;5092011;28;20400;-60
2021/07/23 01:39:35;;;;;;;39.72;13.15;;;17.30;99.90;;;;;;5092281;28;20388;-61
2021/07/23 01:42:01;;;;;;;37.83;12.52;;;17.30;99.90;;;;;;5090579;28;20888;-61
2021/07/23 01:44:27;;;;;;;34.92;12.80;;;17.30;99.90;;;;;;5092167;28;20877;-60
2021/07/23 01:46:53;;;;;;;38.90;13.45;;;17.20;99.90;;;;;;5091811;28;20380;-60
2021/07/23 01:49:19;;;;;;;36.03;14.00;;;17.20;99.90;;;;;;5091896;28;20380;-63
2021/07/23 01:51:45;;;;;;;38.63;13.80;;;17.10;99.90;;;;;;5091874;28;20763;-59
2021/07/23 01:54:11;;;;;;;37.25;13.40;;;17.00;99.90;;;;;;5092237;28;20387;-60
2021/07/23 01:56:37;;;;;;;39.03;13.85;;;17.10;99.90;;;;;;5090412;28;20745;-60
2021/07/23 01:59:03;;;;;;;36.80;13.65;;;17.10;99.90;;;;;;5091611;28;20376;-60
2021/07/23 02:01:30;;;;;;;36.58;13.57;;;17.00;99.90;;;;;;5091768;28;20742;-60
2021/07/23 02:03:56;;;;;;;35.22;13.45;;;17.00;99.90;;;;;;5091572;28;20884;-60
2021/07/23 02:06:22;;;;;;;37.47;13.13;;;17.00;99.90;;;;;;5091488;28;20391;-60
2021/07/23 02:08:48;;;;;;;39.05;13.43;;;17.00;99.90;;;;;;5091556;28;20417;-60
2021/07/23 02:11:14;;;;;;;36.53;13.43;;;17.00;99.90;;;;;;5091393;28;20868;-62
2021/07/23 02:13:40;;;;;;;41.28;14.13;;;17.00;99.90;;;;;;5091305;28;20381;-60
2021/07/23 02:16:06;;;;;;;35.38;13.55;;;17.00;99.90;;;;;;5091497;28;20857;-60
2021/07/23 02:18:33;;;;;;;37.85;13.52;;;17.00;99.90;;;;;;5091882;28;20380;-60
2021/07/23 02:20:59;;;;;;;46.67;14.77;;;17.00;99.90;;;;;;5091773;28;20739;-60
2021/07/23 02:23:25;;;;;;;36.40;14.07;;;17.00;99.90;;;;;;5091432;28;20377;-60
2021/07/23 02:25:51;;;;;;;40.33;14.60;;;16.90;99.90;;;;;;5091915;28;20377;-60
2021/07/23 02:28:17;;;;;;;36.80;14.23;;;16.90;99.90;;;;;;5091082;28;20407;-61
2021/07/23 02:30:43;;;;;;;42.30;14.63;;;17.00;99.90;;;;;;5091910;28;20399;-60
2021/07/23 02:33:09;;;;;;;38.15;15.02;;;17.00;99.90;;;;;;5091192;28;20746;-60
2021/07/23 02:35:35;;;;;;;35.88;14.27;;;17.00;99.90;;;;;;5091058;28;20368;-60
2021/07/23 02:38:01;;;;;;;42.30;15.60;;;16.90;99.90;;;;;;5091626;28;20721;-60
2021/07/23 02:40:27;;;;;;;43.05;15.85;;;17.00;99.90;;;;;;5089967;28;20882;-61
2021/07/23 02:42:54;;;;;;;41.90;15.48;;;16.90;99.90;;;;;;5091174;28;20394;-60
2021/07/23 02:45:20;;;;;;;33.55;14.32;;;16.90;99.90;;;;;;5093498;28;20375;-60
2021/07/23 02:47:46;;;;;;;36.03;15.07;;;16.90;99.90;;;;;;5095085;28;20403;-60
2021/07/23 02:50:12;;;;;;;38.05;14.30;;;16.90;99.90;;;;;;5093560;28;20376;-60
2021/07/23 02:52:38;;;;;;;34.15;14.13;;;16.90;99.90;;;;;;5095271;28;20365;-60
2021/07/23 02:55:05;;;;;;;39.70;15.07;;;16.80;99.90;;;;;;5095098;28;20373;-61
2021/07/23 02:57:31;;;;;;;37.50;14.23;;;16.80;99.90;;;;;;5095182;28;20364;-60
2021/07/23 02:59:57;;;;;;;32.90;13.95;;;16.80;99.90;;;;;;5095168;28;20865;-60
2021/07/23 03:02:23;;;;;;;34.70;14.47;;;16.80;99.90;;;;;;5095507;28;20387;-60
2021/07/23 03:04:49;;;;;;;32.72;14.00;;;16.80;99.90;;;;;;5094980;28;20871;-60
2021/07/23 03:07:15;;;;;;;31.08;14.02;;;16.80;99.90;;;;;;5094812;28;20408;-60
2021/07/23 03:09:41;;;;;;;37.53;14.75;;;16.70;99.90;;;;;;5095089;28;20870;-62
2021/07/23 03:12:07;;;;;;;30.90;13.60;;;16.70;99.90;;;;;;5095009;28;20453;-61
2021/07/23 03:14:33;;;;;;;31.75;13.80;;;16.70;99.90;;;;;;5094986;28;20407;-61
2021/07/23 03:16:59;;;;;;;32.40;13.55;;;16.60;99.90;;;;;;5094757;28;20376;-61
2021/07/23 03:19:25;;;;;;;33.75;14.10;;;16.60;99.90;;;;;;5094701;28;20372;-61
2021/07/23 03:21:55;;;;;;;40.33;14.40;;;16.60;99.90;;;;;;5094769;28;20853;-61
2021/07/23 03:24:21;;;;;;;33.65;13.85;;;16.50;99.90;;;;;;5094636;28;20887;-61
2021/07/23 03:26:47;;;;;;;33.28;13.60;;;16.50;99.90;;;;;;5094624;28;20375;-60
2021/07/23 03:29:13;;;;;;;31.27;13.95;;;16.60;99.90;;;;;;5094495;28;20892;-61
2021/07/23 03:31:39;;;;;;;37.00;14.18;;;16.60;99.90;;;;;;5093077;28;20380;-61
2021/07/23 03:34:05;;;;;;;32.60;13.30;;;16.60;99.90;;;;;;5094555;28;20892;-61
2021/07/23 03:36:31;;;;;;;38.00;14.38;;;16.70;99.90;;;;;;5094590;28;20385;-61
2021/07/23 03:38:57;;;;;;;36.83;14.95;;;16.70;99.90;;;;;;5094452;28;20381;-61
2021/07/23 03:41:23;;;;;;;38.50;16.00;;;16.70;99.90;;;;;;5093251;28;20435;-61
2021/07/23 03:43:49;;;;;;;44.17;16.52;;;16.70;99.90;;;;;;5092078;28;20385;-61
2021/07/23 03:46:15;;;;;;;42.25;16.70;;;16.80;99.90;;;;;;5092998;28;20381;-62
2021/07/23 03:48:41;;;;;;;41.93;16.00;;;16.80;99.90;;;;;;5092750;28;20404;-61
2021/07/23 03:51:07;;;;;;;43.38;16.65;;;16.80;99.90;;;;;;5093038;28;20372;-61
2021/07/23 03:53:34;;;;;;;47.67;17.83;;;16.80;99.90;;;;;;5092874;28;20749;-61
2021/07/23 03:56:04;;;;;;;34.95;16.20;;;16.80;99.90;;;;;;5092281;28;20379;-61
2021/07/23 03:58:30;;;;;;;40.05;16.30;;;16.80;99.90;;;;;;5092750;28;20372;-61
2021/07/23 04:00:56;;;;;;;37.97;16.30;;;16.80;99.90;;;;;;5090965;28;20725;-61
2021/07/23 04:03:22;;;;;;;37.90;16.63;;;16.80;99.90;;;;;;5078297;28;20874;-61
2021/07/23 04:05:49;;;;;;;39.67;15.68;;;16.90;99.90;;;;;;5075794;28;20467;-61
2021/07/23 04:08:15;;;;;;;39.60;16.48;;;16.90;99.90;;;;;;5073029;28;20891;-61
2021/07/23 04:10:41;;;;;;;39.08;16.30;;;16.90;99.90;;;;;;5076326;28;20374;-61
2021/07/23 04:13:07;;;;;;;38.47;15.97;;;17.00;99.90;;;;;;5077975;28;20385;-61
2021/07/23 04:15:33;;;;;;;38.92;16.67;;;17.00;99.90;;;;;;5082577;28;20370;-61
2021/07/23 04:17:59;;;;;;;35.90;16.00;;;17.00;99.90;;;;;;5070829;28;20382;-61
2021/07/23 04:20:25;;;;;;;38.88;16.10;;;17.00;99.90;;;;;;5082546;28;20385;-61
2021/07/23 04:22:51;;;;;;;38.38;15.75;;;17.00;99.90;;;;;;5073720;28;20412;-61
2021/07/23 04:25:17;;;;;;;37.88;16.30;;;17.00;99.90;;;;;;5075258;28;20379;-61
2021/07/23 04:27:43;;;;;;;38.45;15.60;;;17.00;99.90;;;;;;5073148;28;20445;-61
2021/07/23 04:30:10;;;;;;;37.92;15.95;;;17.10;99.90;;;;;;5075332;28;20389;-61
2021/07/23 04:32:36;;;;;;;34.65;15.32;;;17.10;99.90;;;;;;5075835;28;20370;-61
2021/07/23 04:35:02;;;;;;;37.77;15.87;;;17.10;99.90;;;;;;5077798;28;20731;-62
2021/07/23 04:37:28;;;;;;;34.45;15.30;;;17.10;99.90;;;;;;5071958;28;20461;-61
2021/07/23 04:39:54;;;;;;;38.00;15.57;;;17.20;99.90;;;;;;5077566;28;20395;-61
2021/07/23 04:42:20;;;;;;;34.00;14.45;;;17.20;99.90;;;;;;5008154;28;1821516;-61
2021/07/23 04:44:47;;;;;;;30.23;14.02;;;17.30;99.90;;;;;;5081135;28;20390;-60
2021/07/23 04:47:13;;;;;;;36.67;14.30;;;17.40;99.90;;;;;;5076153;28;20386;-61
2021/07/23 04:49:39;;;;;;;29.35;13.85;;;17.40;99.90;;;;;;5083012;28;20397;-61
2021/07/23 04:52:05;;;;;;;33.28;14.40;;;17.40;99.90;;;;;;5075966;28;20376;-61
2021/07/23 04:54:31;;;;;;;31.52;14.25;;;17.50;99.90;;;;;;5076890;28;20382;-61
2021/07/23 04:56:58;;;;;;;34.77;14.33;;;17.40;99.90;;;;;;5072751;28;20877;-61
2021/07/23 04:59:24;;;;;;;33.50;14.55;;;17.40;99.90;;;;;;5076716;28;20380;-61
2021/07/23 05:01:50;;;;;;;30.75;14.25;;;17.40;99.90;;;;;;5079181;28;20373;-61
2021/07/23 05:04:16;;;;;;;30.80;14.30;;;17.40;99.90;;;;;;5075885;28;20379;-61
2021/07/23 05:06:42;;;;;;;34.22;15.30;;;17.40;99.90;;;;;;5074302;28;20380;-61
2021/07/23 05:09:08;;;;;;;32.88;14.48;;;17.40;99.90;;;;;;5075467;28;20403;-61
2021/07/23 05:11:35;;;;;;;32.40;14.45;;;17.40;99.90;;;;;;5074656;28;20371;-61
2021/07/23 05:14:01;;;;;;;36.72;13.73;;;17.30;99.90;;;;;;5075430;28;20450;-61
2021/07/23 05:16:27;;;;;;;35.10;14.70;;;17.40;99.90;;;;;;5075184;28;20849;-60
2021/07/23 05:18:53;;;;;;;32.92;14.55;;;17.40;99.90;;;;;;5071034;28;20385;-61
2021/07/23 05:21:19;;;;;;;30.98;13.73;;;17.40;99.90;;;;;;5072263;28;20731;-61
2021/07/23 05:23:46;;;;;;;34.40;13.87;;;17.50;99.90;;;;;;5079224;28;20378;-59
2021/07/23 05:26:12;;;;;;;29.98;13.20;;;17.60;99.90;;;;;;5080645;28;20365;-60
2021/07/23 05:28:38;;;;;;;29.85;14.00;;;17.70;99.90;;;;;;5072594;28;20469;-60
2021/07/23 05:31:05;;;;;;;32.45;14.25;;;17.80;99.90;;;;;;5080618;28;20364;-61
2021/07/23 05:33:31;;;;;;;33.10;13.38;;;17.80;99.90;;;;;;5074145;28;20387;-60
2021/07/23 05:35:57;;;;;;;26.70;13.10;;;17.90;99.90;;;;;;5074302;28;20370;-60
2021/07/23 05:38:23;;;;;;;29.73;12.53;;;17.80;99.90;;;;;;5075501;28;20457;-61
2021/07/23 05:40:49;;;;;;;32.25;13.10;;;17.80;99.90;;;;;;5071563;28;20405;-61
2021/07/23 05:43:17;;;;;;;32.08;12.85;;;17.80;99.90;;;;;;5081587;28;20390;-60
2021/07/23 05:45:43;;;;;;;33.50;12.52;;;17.80;99.90;;;;;;5073618;28;20390;-60
2021/07/23 05:48:09;;;;;;;29.97;12.77;;;18.00;99.90;;;;;;5078459;28;20422;-60
2021/07/23 05:50:35;;;;;;;26.85;12.32;;;18.10;99.90;;;;;;5089458;28;20376;-60
2021/07/23 05:53:01;;;;;;;29.92;12.45;;;18.20;99.90;;;;;;5072182;28;20385;-61
2021/07/23 05:55:27;;;;;;;33.53;12.30;;;18.30;99.90;;;;;;5081190;28;20373;-62
2021/07/23 05:57:57;;;;;;;26.03;11.93;;;18.40;99.90;;;;;;5072313;28;20370;-60
2021/07/23 06:00:27;;;;;;;27.63;11.98;;;18.60;99.90;;;;;;5075838;28;20378;-60
2021/07/23 06:03:03;;;;;;;29.57;11.70;;;18.70;99.90;;;;;;5079705;28;20376;-60
2021/07/23 06:05:29;;;;;;;29.15;12.13;;;18.80;99.90;;;;;;5071431;28;20397;-61
2021/07/23 06:07:55;;;;;;;28.88;11.85;;;18.90;99.90;;;;;;5075901;28;20871;-62
2021/07/23 06:10:21;;;;;;;26.77;11.60;;;18.90;99.90;;;;;;5075131;28;20382;-61
2021/07/23 06:12:47;;;;;;;27.00;11.43;;;18.80;99.90;;;;;;5078763;28;20739;-61
2021/07/23 06:15:13;;;;;;;23.45;11.07;;;18.80;99.90;;;;;;5071520;28;20397;-61
2021/07/23 06:17:39;;;;;;;23.55;11.27;;;18.90;99.90;;;;;;5077915;28;20389;-61
2021/07/23 06:20:06;;;;;;;28.23;11.73;;;18.90;99.90;;;;;;5082018;28;20861;-61
2021/07/23 06:22:32;;;;;;;27.55;11.52;;;19.00;99.90;;;;;;5077213;28;20395;-61
2021/07/23 06:24:58;;;;;;;24.10;11.02;;;19.00;99.90;;;;;;5078596;28;20384;-60
2021/07/23 06:27:25;;;;;;;26.63;11.18;;;19.20;99.90;;;;;;5081298;28;20383;-61
2021/07/23 06:29:53;;;;;;;25.20;11.48;;;19.30;99.90;;;;;;5082601;28;20392;-61
2021/07/23 06:32:20;;;;;;;24.85;11.30;;;19.50;99.90;;;;;;5082758;28;20382;-60
2021/07/23 06:34:47;;;;;;;27.02;10.48;;;19.60;99.90;;;;;;5087100;28;20189;-59
2021/07/23 06:37:15;;;;;;;21.25;10.05;;;19.60;99.90;;;;;;5083636;28;20174;-59
2021/07/23 06:39:42;;;;;;;23.02;9.88;;;19.40;99.90;;;;;;5082428;28;20174;-59
2021/07/23 06:42:08;;;;;;;28.67;10.05;;;19.50;99.90;;;;;;5082745;28;20205;-59
2021/07/23 06:44:36;;;;;;;20.23;9.48;;;19.50;99.90;;;;;;5083318;28;20174;-59
2021/07/23 06:47:02;;;;;;;22.67;9.18;;;19.70;99.90;;;;;;5083189;28;20169;-59
2021/07/23 06:49:28;;;;;;;21.50;9.48;;;19.80;99.90;;;;;;5081523;28;20224;-59
2021/07/23 06:51:54;;;;;;;27.77;10.05;;;19.90;99.90;;;;;;5085399;28;20724;-60
2021/07/23 06:54:20;;;;;;;22.42;9.38;;;19.80;99.20;;;;;;5083559;28;20188;-60
2021/07/23 06:56:49;;;;;;;23.70;9.45;;;19.90;98.90;;;;;;5091924;28;20653;-60
2021/07/23 06:59:15;;;;;;;24.25;9.90;;;19.60;98.80;;;;;;5091779;28;20188;-60
2021/07/23 07:01:42;;;;;;;28.80;9.90;;;19.50;99.00;;;;;;5091825;28;20180;-60
2021/07/23 07:04:08;;;;;;;22.30;8.75;;;19.50;99.10;;;;;;5085262;28;20189;-60
2021/07/23 07:06:34;;;;;;;22.25;8.52;;;19.70;99.00;;;;;;5074769;28;20185;-60
2021/07/23 07:09:00;;;;;;;25.65;9.35;;;19.90;98.50;;;;;;5091213;28;20197;-59
2021/07/23 07:11:26;;;;;;;23.27;9.57;;;20.10;97.60;;;;;;5091597;28;20178;-60
2021/07/23 07:13:52;;;;;;;21.42;9.20;;;20.10;97.00;;;;;;5091312;28;20625;-60
2021/07/23 07:16:18;;;;;;;25.00;8.95;;;20.00;97.20;;;;;;5091164;28;20235;-60
2021/07/23 07:18:44;;;;;;;23.23;9.52;;;20.10;97.20;;;;;;5091244;28;20759;-59
2021/07/23 07:21:13;;;;;;;31.80;9.73;;;20.30;97.50;;;;;;5091251;28;20174;-60
2021/07/23 07:23:43;;;;;;;29.40;10.30;;;20.30;96.70;;;;;;5091231;28;20174;-61
2021/07/23 07:26:12;;;;;;;23.70;9.85;;;20.30;96.20;;;;;;5091581;28;20188;-60
2021/07/23 07:28:38;;;;;;;21.50;9.80;;;20.50;96.60;;;;;;5091254;28;20554;-59
2021/07/23 07:31:04;;;;;;;21.42;9.13;;;20.80;96.30;;;;;;5092091;28;20184;-59
2021/07/23 07:33:30;;;;;;;19.63;8.05;;;20.90;95.00;;;;;;5087398;28;20631;-59
2021/07/23 07:35:57;;;;;;;23.83;8.90;;;21.00;95.40;;;;;;5092949;28;20180;-60
2021/07/23 07:38:23;;;;;;;19.83;9.35;;;20.90;94.40;;;;;;5088061;28;20661;-60
2021/07/23 07:40:49;;;;;;;18.65;9.05;;;21.10;94.70;;;;;;5095488;28;20228;-60
2021/07/23 07:43:15;;;;;;;22.02;8.68;;;21.30;94.10;;;;;;5095326;28;20665;-60
2021/07/23 07:45:41;;;;;;;19.90;8.90;;;21.50;93.00;;;;;;5095729;28;20182;-59
2021/07/23 07:48:08;;;;;;;18.95;8.95;;;21.30;92.50;;;;;;5095987;28;20204;-61
2021/07/23 07:50:34;;;;;;;21.50;8.98;;;21.30;92.80;;;;;;5095768;28;20177;-60
2021/07/23 07:53:06;;;;;;;20.48;8.60;;;21.40;92.10;;;;;;5096286;28;20185;-60
2021/07/23 07:55:32;;;;;;;17.17;9.02;;;21.40;91.70;;;;;;5094560;28;20168;-59
2021/07/23 07:57:58;;;;;;;22.73;8.63;;;21.30;91.80;;;;;;5095714;28;20169;-60
2021/07/23 08:00:24;;;;;;;22.08;8.98;;;21.40;92.20;;;;;;5094291;28;20193;-60
2021/07/23 08:02:50;;;;;;;;;;;21.70;91.80;;;;;;5096446;28;20043;-59
2021/07/23 08:05:16;;;;;;;;;;;22.00;91.10;;;;;;5096165;28;19908;-60
2021/07/23 08:07:42;;;;;;;;;;;22.20;90.60;;;;;;5096088;28;19916;-60
2021/07/23 08:10:10;;;;;;;;;;;22.20;88.80;;;;;;5095793;28;20323;-59
2021/07/23 08:12:36;;;;;;;;;;;21.90;89.30;;;;;;5094793;28;20383;-59
2021/07/23 08:15:02;;;;;;;;;;;21.40;89.70;;;;;;5095766;28;19915;-60
2021/07/23 08:17:28;;;;;;;;;;;21.20;90.30;;;;;;5095421;28;19947;-61
2021/07/23 08:19:55;;;;;;;;;;;21.50;90.80;;;;;;5095832;28;20364;-60
2021/07/23 08:22:21;;;;;;;;;;;21.90;90.50;;;;;;5095501;28;19911;-60
2021/07/23 08:24:47;;;;;;;;;;;22.10;88.80;;;;;;5095606;28;19995;-61
2021/07/23 08:27:14;;;;;;;;;;;22.30;87.20;;;;;;5095702;28;19912;-61
2021/07/23 08:29:40;;;;;;;;;;;22.70;87.30;;;;;;5094147;28;19920;-60
2021/07/23 08:32:08;;;;;;;;;;;23.00;86.70;;;;;;5095590;28;20391;-61
2021/07/23 08:34:34;;;;;;;;;;;23.20;84.10;;;;;;5093913;28;19904;-61
2021/07/23 08:37:00;;;;;;;;;;;23.40;81.80;;;;;;5095515;28;20288;-61
2021/07/23 08:39:26;;;;;;;;;;;23.80;80.60;;;;;;5094929;28;19912;-60
2021/07/23 08:41:52;;;;;;;;;;;24.10;78.00;;;;;;5092806;28;19920;-60
2021/07/23 08:44:18;;;;;;;;;;;24.50;77.70;;;;;;5095513;28;19908;-61
2021/07/23 08:46:44;;;;;;;;;;;25.00;78.10;;;;;;5095159;28;19914;-60
2021/07/23 08:49:10;;;;;;;;;;;25.60;76.00;;;;;;5095002;28;19912;-61
2021/07/23 08:51:36;;;;;;;;;;;25.40;75.40;;;;;;5095006;28;19916;-60
2021/07/23 08:54:04;;;;;;;;;;;25.50;74.40;;;;;;5095107;28;19907;-61
2021/07/23 08:56:30;;;;;;;;;;;25.50;74.50;;;;;;5095111;28;19911;-61
2021/07/23 08:58:56;;;;;;;;;;;25.80;74.50;;;;;;5094955;28;19908;-61
2021/07/23 09:01:22;;;;;;;;;;;25.50;73.80;;;;;;5094646;28;19915;-61
2021/07/23 09:03:48;;;;;;;;;;;25.00;74.60;;;;;;5094764;28;20357;-61
2021/07/23 09:06:17;;;;;;;;;;;25.40;75.10;;;;;;5094720;28;19912;-61
2021/07/23 09:08:46;;;;;;;;;;;26.00;73.20;;;;;;5094511;28;19915;-61
2021/07/23 09:11:12;;;;;;;;;;;26.10;72.40;;;;;;5094594;28;19912;-60
2021/07/23 09:13:38;;;;;;;;;;;26.40;72.00;;;;;;5094516;28;20371;-61
2021/07/23 09:16:07;;;;;;;;;;;26.40;70.90;;;;;;5094543;28;19915;-61
2021/07/23 09:18:35;;;;;;;;;;;26.90;68.70;;;;;;5093046;28;19911;-60
2021/07/23 09:21:04;;;;;;;;;;;27.00;67.70;;;;;;5094658;28;19931;-60
2021/07/23 09:23:31;;;;;;;;;;;27.00;67.80;;;;;;5094848;28;19915;-60
2021/07/23 09:26:02;;;;;;;;;;;27.30;65.80;;;;;;5094946;28;19908;-61
2021/07/23 09:28:38;;;;;;;;;;;27.40;64.20;;;;;;5094744;28;19908;-60
2021/07/23 09:31:07;;;;;;;;;;;27.60;64.80;;;;;;5079333;28;19905;-61
2021/07/23 09:33:40;;;;;;;;;;;27.40;64.50;;;;;;5085625;28;20288;-61
2021/07/23 09:36:10;;;;;;;;;;;27.60;64.50;;;;;;5094443;28;19915;-60
2021/07/23 09:38:45;;;;;;;;;;;26.10;66.00;;;;;;5082090;28;19913;-60
2021/07/23 09:41:11;;;;;;;;;;;25.90;67.90;;;;;;5073660;28;19927;-61
2021/07/23 09:43:38;;;;;;;;;;;26.60;67.30;;;;;;5073713;28;19912;-61
2021/07/23 09:46:16;;;;;;;;;;;26.70;66.20;;;;;;5074166;28;20357;-61
2021/07/23 09:48:46;;;;;;;;;;;27.10;64.70;;;;;;5078129;28;19919;-60
2021/07/23 09:51:12;;;;;;;;;;;27.10;65.40;;;;;;5082195;28;19916;-60
2021/07/23 09:53:37;;;;;;;;;;;26.90;63.80;;;;;;5082967;28;19908;-61
2021/07/23 09:56:07;;;;;;;;;;;27.00;65.50;;;;;;5083970;28;19915;-61
2021/07/23 09:58:39;;;;;;;;;;;27.30;64.60;;;;;;5083134;28;19915;-60
2021/07/23 10:01:08;;;;;;;;;;;27.20;64.30;;;;;;5084640;28;19915;-61
2021/07/23 10:03:34;;;;;;;;;;;26.80;64.70;;;;;;5093576;28;19909;-61
2021/07/23 10:06:00;;;;;;;;;;;26.80;65.00;;;;;;5094155;28;19908;-60
2021/07/23 10:08:29;;;;;;;;;;;26.50;66.10;;;;;;5093405;28;19915;-60
2021/07/23 10:10:55;;;;;;;;;;;26.20;65.20;;;;;;5092488;28;19915;-60
2021/07/23 10:13:22;;;;;;;;;;;25.90;67.60;;;;;;5093565;28;19904;-60
2021/07/23 10:15:48;;;;;;;;;;;26.10;67.00;;;;;;5094145;28;19904;-61
2021/07/23 10:18:14;;;;;;;;;;;25.80;66.80;;;;;;5093793;28;20240;-60
2021/07/23 10:20:40;;;;;;;;;;;25.50;68.50;;;;;;5093510;28;19911;-60
2021/07/23 10:23:06;;;;;;;;;;;26.00;67.20;;;;;;5093476;28;19911;-60
2021/07/23 10:25:34;;;;;;;;;;;25.30;67.30;;;;;;5093441;28;20299;-61
2021/07/23 10:28:00;;;;;;;;;;;25.30;69.00;;;;;;5092587;28;19904;-60
2021/07/23 10:30:29;;;;;;;;;;;26.00;67.60;;;;;;5091914;28;19916;-61
2021/07/23 10:32:55;;;;;;;;;;;26.20;65.90;;;;;;5093562;28;20269;-61
2021/07/23 10:35:24;;;;;;;;;;;25.50;67.10;;;;;;5091923;28;19904;-60
2021/07/23 10:37:51;;;;;;;;;;;25.50;68.80;;;;;;5093604;28;19908;-60
2021/07/23 10:40:17;;;;;;;;;;;26.30;68.30;;;;;;5093511;28;19920;-60
2021/07/23 10:42:43;;;;;;;;;;;26.00;66.60;;;;;;5093475;28;19935;-60
2021/07/23 10:45:12;;;;;;;;;;;26.40;65.30;;;;;;5093236;28;19904;-60
2021/07/23 10:47:38;;;;;;;;;;;26.70;65.40;;;;;;5076796;28;19915;-60
2021/07/23 10:50:04;;;;;;;;;;;26.70;63.30;;;;;;5072815;28;19946;-60
2021/07/23 10:52:37;;;;;;;;;;;26.70;64.40;;;;;;5073670;28;19915;-61
2021/07/23 10:55:21;;;;;;;;;;;26.00;64.40;;;;;;5073640;28;19909;-60
2021/07/23 10:58:07;;;;;;;;;;;25.20;66.60;;;;;;5072795;28;19931;-61
2021/07/23 11:00:52;;;;;;;;;;;25.70;67.80;;;;;;5065359;28;20357;-62
2021/07/23 11:03:41;;;;;;;;;;;26.30;65.80;;;;;;5078651;28;19915;-61
2021/07/23 11:06:23;;;;;;;;;;;26.70;62.80;;;;;;5094169;28;19907;-61
2021/07/23 11:08:52;;;;;;;;;;;27.10;63.10;;;;;;5094849;28;19915;-61
2021/07/23 11:11:19;;;;;;;;;;;26.70;63.90;;;;;;5094292;28;19909;-61
2021/07/23 11:13:45;;;;;;;;;;;25.40;66.00;;;;;;5094899;28;19908;-61
2021/07/23 11:16:11;;;;;;;;;;;25.90;66.50;;;;;;5094734;28;19904;-61
2021/07/23 11:18:48;;;;;;;;;;;26.00;66.30;;;;;;5094569;28;19904;-61
2021/07/23 11:21:15;;;;;;;;;;;26.30;65.60;;;;;;5094908;28;19904;-61
2021/07/23 11:23:40;;;;;;;;;;;26.40;65.30;;;;;;5097184;28;19912;-61
2021/07/23 11:26:06;;;;;;;;;;;26.90;63.20;;;;;;5096811;28;19930;-61
2021/07/23 11:28:45;;;;;;;;;;;26.80;62.60;;;;;;5097272;28;19911;-61
2021/07/23 11:31:23;;;;;;;;;;;27.00;62.90;;;;;;5097277;28;19919;-61
2021/07/23 11:33:49;;;;;;;;;;;26.50;63.80;;;;;;5096168;28;20262;-61
2021/07/23 11:36:34;;;;;;;;;;;26.80;62.10;;;;;;5096628;28;20011;-61
2021/07/23 11:39:03;;;;;;;;;;;26.80;63.30;;;;;;5096526;28;19972;-61
2021/07/23 11:41:29;;;;;;;;;;;26.40;62.90;;;;;;5096329;28;19920;-61
2021/07/23 11:44:07;;;;;;;;;;;26.60;62.70;;;;;;5097246;28;19934;-61
2021/07/23 11:46:34;;;;;;;;;;;26.60;63.10;;;;;;5096976;28;20234;-61
2021/07/23 11:49:01;;;;;;;;;;;26.40;63.40;;;;;;5096253;28;19904;-61
2021/07/23 11:51:56;;;;;;;;;;;26.40;63.50;;;;;;5096394;28;19912;-61
2021/07/23 11:54:22;;;;;;;;;;;26.60;64.10;;;;;;5086550;28;19904;-61
2021/07/23 11:56:48;;;;;;;;;;;26.50;63.70;;;;;;5095088;28;20360;-61
2021/07/23 11:59:14;;;;;;;;;;;26.30;63.70;;;;;;5095030;28;19911;-61
2021/07/23 12:01:40;;;;;;;;;;;25.80;64.80;;;;;;5096146;28;19919;-61
2021/07/23 12:04:06;;;;;;;;;;;25.40;65.10;;;;;;5096480;28;19912;-61
2021/07/23 12:06:32;;;;;;;;;;;25.30;66.70;;;;;;5096162;28;19919;-61
2021/07/23 12:09:00;;;;;;;;;;;25.70;66.00;;;;;;5095980;28;19908;-61
2021/07/23 12:11:28;;;;;;;;;;;25.50;66.30;;;;;;5095584;28;19915;-60
2021/07/23 12:13:54;;;;;;;;;;;25.30;66.20;;;;;;5078229;28;19904;-61
2021/07/23 12:16:20;;;;;;;;;;;25.20;67.20;;;;;;5094941;28;19904;-60
2021/07/23 12:18:58;;;;;;;;;;;25.20;67.50;;;;;;5095190;28;19911;-60
2021/07/23 12:21:25;;;;;;;;;;;24.90;69.80;;;;;;5094630;28;19904;-60
2021/07/23 12:24:01;;;;;;;;;;;25.10;68.20;;;;;;5095725;28;20280;-62
2021/07/23 12:26:31;;;;;;;;;;;25.00;68.20;;;;;;5096114;28;19911;-60
2021/07/23 12:28:57;;;;;;;;;;;25.00;68.70;;;;;;5095597;28;19912;-60
2021/07/23 12:31:23;;;;;;;;;;;24.50;69.80;;;;;;5094502;28;19908;-61
2021/07/23 12:34:08;;;;;;;;;;;24.80;69.80;;;;;;5095581;28;20375;-60
2021/07/23 12:36:40;;;;;;;;;;;24.90;69.80;;;;;;5095581;28;19912;-60
2021/07/23 12:39:06;;;;;;;;;;;24.50;69.50;;;;;;5095487;28;20245;-60
2021/07/23 12:41:32;;;;;;;;;;;24.50;70.80;;;;;;5095360;28;19916;-60
2021/07/23 12:44:04;;;;;;;;;;;24.20;71.50;;;;;;5095679;28;19923;-60
2021/07/23 12:46:31;;;;;;;;;;;24.10;71.60;;;;;;5096130;28;19911;-60
2021/07/23 12:49:07;;;;;;;;;;;24.40;71.00;;;;;;5095191;28;19912;-60
2021/07/23 12:51:33;;;;;;;;;;;24.60;71.20;;;;;;5094133;28;19915;-60
2021/07/23 12:53:58;;;;;;;;;;;24.40;70.60;;;;;;5095555;28;19908;-60
2021/07/23 12:56:29;;;;;;;;;;;24.60;70.90;;;;;;5095093;28;19908;-60
2021/07/23 12:58:56;;;;;;;;;;;24.40;71.60;;;;;;5093913;28;19908;-61
2021/07/23 13:01:22;;;;;;;;;;;24.70;71.20;;;;;;5094074;28;19911;-60
2021/07/23 13:03:48;;;;;;;;;;;24.80;70.10;;;;;;5095633;28;19912;-61
2021/07/23 13:06:16;;;;;;;;;;;24.60;70.10;;;;;;5095017;28;19908;-60
2021/07/23 13:08:43;;;;;;;;;;;24.20;70.20;;;;;;5095351;28;19912;-60